sensor_id;sensor_type;location;lat;lon;timestamp;P1;durP1;ratioP1;P2;durP2;ratioP2
79785;SDS011;69265;43.614;13.518;2023-04-16T15:31:17;5.15;;;1.13;;
79785;SDS011;69265;43.614;13.518;2023-04-16T15:33:44;6.63;;;1.17;;
79785;SDS011;69265;43.614;13.518;2023-04-16T15:36:11;7.72;;;1.13;;
79785;SDS011;69265;43.614;13.518;2023-04-16T15:38:37;4.03;;;1.00;;
79785;SDS011;69265;43.614;13.518;2023-04-16T15:41:03;4.57;;;1.20;;
79785;SDS011;69265;43.614;13.518;2023-04-16T15:43:29;2.67;;;1.23;;
79785;SDS011;69265;43.614;13.518;2023-04-16T15:45:54;6.57;;;1.25;;
79785;SDS011;69265;43.614;13.518;2023-04-16T15:48:22;4.35;;;1.10;;
79785;SDS011;69265;43.614;13.518;2023-04-16T15:50:48;8.60;;;1.45;;
79785;SDS011;69265;43.614;13.518;2023-04-16T15:53:16;4.88;;;1.10;;
79785;SDS011;69265;43.614;13.518;2023-04-16T15:55:45;5.28;;;1.70;;
79785;SDS011;69265;43.614;13.518;2023-04-16T15:58:13;5.43;;;1.60;;
79785;SDS011;69265;43.614;13.518;2023-04-16T16:00:43;4.10;;;1.40;;
79785;SDS011;69265;43.614;13.518;2023-04-16T16:03:36;3.90;;;1.30;;
79785;SDS011;69265;43.614;13.518;2023-04-16T16:06:06;5.95;;;1.45;;
79785;SDS011;69265;43.614;13.518;2023-04-16T16:08:33;6.15;;;1.38;;
79785;SDS011;69265;43.614;13.518;2023-04-16T16:11:00;3.00;;;1.20;;
79785;SDS011;69265;43.614;13.518;2023-04-16T16:13:36;7.88;;;1.30;;
79785;SDS011;69265;43.614;13.518;2023-04-16T16:16:03;5.63;;;1.50;;
79785;SDS011;69265;43.614;13.518;2023-04-16T16:18:32;1.92;;;1.00;;
79785;SDS011;69265;43.614;13.518;2023-04-16T16:20:58;4.72;;;1.00;;
79785;SDS011;69265;43.614;13.518;2023-04-16T16:23:25;2.95;;;1.20;;
79785;SDS011;69265;43.614;13.518;2023-04-16T16:25:51;9.95;;;1.70;;
79785;SDS011;69265;43.614;13.518;2023-04-16T16:28:17;4.97;;;1.55;;
79785;SDS011;69265;43.614;13.518;2023-04-16T16:30:44;4.32;;;1.65;;
79785;SDS011;69265;43.614;13.518;2023-04-16T16:33:11;7.68;;;2.03;;
79785;SDS011;69265;43.614;13.518;2023-04-16T16:35:39;5.13;;;1.63;;
79785;SDS011;69265;43.614;13.518;2023-04-16T16:38:15;3.47;;;1.48;;
79785;SDS011;69265;43.614;13.518;2023-04-16T16:40:43;5.88;;;1.60;;
79785;SDS011;69265;43.614;13.518;2023-04-16T16:43:09;5.43;;;1.40;;
79785;SDS011;69265;43.614;13.518;2023-04-16T16:45:35;5.63;;;1.67;;
79785;SDS011;69265;43.614;13.518;2023-04-16T16:48:02;1.70;;;0.85;;
79785;SDS011;69265;43.614;13.518;2023-04-16T16:50:31;6.05;;;1.80;;
79785;SDS011;69265;43.614;13.518;2023-04-16T16:52:58;4.15;;;1.20;;
79785;SDS011;69265;43.614;13.518;2023-04-16T16:55:24;6.18;;;1.23;;
79785;SDS011;69265;43.614;13.518;2023-04-16T16:57:52;7.18;;;1.27;;
79785;SDS011;69265;43.614;13.518;2023-04-16T17:00:18;5.60;;;1.02;;
79785;SDS011;69265;43.614;13.518;2023-04-16T17:02:45;4.25;;;1.27;;
79785;SDS011;69265;43.614;13.518;2023-04-16T17:05:11;7.95;;;1.58;;
79785;SDS011;69265;43.614;13.518;2023-04-16T17:07:37;9.75;;;1.77;;
79785;SDS011;69265;43.614;13.518;2023-04-16T17:10:03;3.72;;;1.42;;
79785;SDS011;69265;43.614;13.518;2023-04-16T17:12:30;7.15;;;1.48;;
79785;SDS011;69265;43.614;13.518;2023-04-16T17:14:56;4.65;;;1.35;;
79785;SDS011;69265;43.614;13.518;2023-04-16T17:17:22;2.72;;;1.17;;
79785;SDS011;69265;43.614;13.518;2023-04-16T17:19:49;4.32;;;1.05;;
79785;SDS011;69265;43.614;13.518;2023-04-16T17:22:14;5.30;;;1.35;;
79785;SDS011;69265;43.614;13.518;2023-04-16T17:24:40;4.10;;;1.20;;
79785;SDS011;69265;43.614;13.518;2023-04-16T17:27:06;1.42;;;0.82;;
79785;SDS011;69265;43.614;13.518;2023-04-16T17:29:32;4.47;;;1.48;;
79785;SDS011;69265;43.614;13.518;2023-04-16T17:31:57;4.38;;;1.20;;
79785;SDS011;69265;43.614;13.518;2023-04-16T17:34:23;6.03;;;1.45;;
79785;SDS011;69265;43.614;13.518;2023-04-16T17:36:49;4.13;;;1.17;;
79785;SDS011;69265;43.614;13.518;2023-04-16T17:39:15;4.88;;;1.20;;
79785;SDS011;69265;43.614;13.518;2023-04-16T17:41:41;5.95;;;1.42;;
79785;SDS011;69265;43.614;13.518;2023-04-16T17:44:07;2.85;;;1.05;;
79785;SDS011;69265;43.614;13.518;2023-04-16T17:46:33;2.92;;;1.05;;
79785;SDS011;69265;43.614;13.518;2023-04-16T17:49:00;4.50;;;1.00;;
79785;SDS011;69265;43.614;13.518;2023-04-16T17:51:26;3.17;;;1.05;;
79785;SDS011;69265;43.614;13.518;2023-04-16T17:53:52;2.47;;;1.10;;
79785;SDS011;69265;43.614;13.518;2023-04-16T17:56:17;7.85;;;1.00;;
79785;SDS011;69265;43.614;13.518;2023-04-16T17:58:43;4.82;;;0.90;;
79785;SDS011;69265;43.614;13.518;2023-04-16T18:01:09;6.05;;;1.23;;
79785;SDS011;69265;43.614;13.518;2023-04-16T18:03:35;4.65;;;1.35;;
79785;SDS011;69265;43.614;13.518;2023-04-16T18:06:02;7.60;;;1.35;;
79785;SDS011;69265;43.614;13.518;2023-04-16T18:08:28;4.55;;;1.30;;
79785;SDS011;69265;43.614;13.518;2023-04-16T18:10:54;4.00;;;1.30;;
79785;SDS011;69265;43.614;13.518;2023-04-16T18:13:21;5.45;;;1.48;;
79785;SDS011;69265;43.614;13.518;2023-04-16T18:15:48;2.72;;;1.10;;
79785;SDS011;69265;43.614;13.518;2023-04-16T18:18:14;4.15;;;1.30;;
79785;SDS011;69265;43.614;13.518;2023-04-16T18:20:40;2.35;;;1.20;;
79785;SDS011;69265;43.614;13.518;2023-04-16T18:23:06;6.90;;;1.73;;
79785;SDS011;69265;43.614;13.518;2023-04-16T18:25:31;4.07;;;1.50;;
79785;SDS011;69265;43.614;13.518;2023-04-16T18:27:57;5.22;;;1.55;;
79785;SDS011;69265;43.614;13.518;2023-04-16T18:30:26;2.50;;;1.20;;
79785;SDS011;69265;43.614;13.518;2023-04-16T18:32:58;3.95;;;1.50;;
79785;SDS011;69265;43.614;13.518;2023-04-16T18:35:26;7.60;;;2.20;;
79785;SDS011;69265;43.614;13.518;2023-04-16T18:37:57;7.47;;;1.33;;
79785;SDS011;69265;43.614;13.518;2023-04-16T18:40:25;5.22;;;1.50;;
79785;SDS011;69265;43.614;13.518;2023-04-16T18:42:53;5.60;;;1.80;;
79785;SDS011;69265;43.614;13.518;2023-04-16T18:45:23;4.28;;;1.83;;
79785;SDS011;69265;43.614;13.518;2023-04-16T18:47:49;5.43;;;1.67;;
79785;SDS011;69265;43.614;13.518;2023-04-16T18:50:18;6.40;;;1.75;;
79785;SDS011;69265;43.614;13.518;2023-04-16T18:53:10;8.45;;;2.22;;
79785;SDS011;69265;43.614;13.518;2023-04-16T18:55:43;5.00;;;1.83;;
79785;SDS011;69265;43.614;13.518;2023-04-16T18:58:12;7.18;;;2.50;;
79785;SDS011;69265;43.614;13.518;2023-04-16T19:00:39;6.68;;;2.10;;
79785;SDS011;69265;43.614;13.518;2023-04-16T19:04:07;6.47;;;2.30;;
79785;SDS011;69265;43.614;13.518;2023-04-16T19:06:55;10.68;;;2.80;;
79785;SDS011;69265;43.614;13.518;2023-04-16T19:09:30;6.93;;;2.58;;
79785;SDS011;69265;43.614;13.518;2023-04-16T19:12:04;14.32;;;2.92;;
79785;SDS011;69265;43.614;13.518;2023-04-16T19:15:06;7.30;;;2.63;;
79785;SDS011;69265;43.614;13.518;2023-04-16T19:17:42;8.18;;;2.72;;
79785;SDS011;69265;43.614;13.518;2023-04-16T19:20:10;9.70;;;2.75;;
79785;SDS011;69265;43.614;13.518;2023-04-16T19:23:25;8.85;;;3.97;;
79785;SDS011;69265;43.614;13.518;2023-04-16T19:25:52;11.50;;;3.35;;
79785;SDS011;69265;43.614;13.518;2023-04-16T19:28:20;6.25;;;3.28;;
79785;SDS011;69265;43.614;13.518;2023-04-16T19:30:48;10.88;;;3.67;;
79785;SDS011;69265;43.614;13.518;2023-04-16T19:35:44;8.82;;;3.00;;
79785;SDS011;69265;43.614;13.518;2023-04-16T19:38:11;8.65;;;2.92;;
79785;SDS011;69265;43.614;13.518;2023-04-16T19:40:37;16.27;;;3.67;;
79785;SDS011;69265;43.614;13.518;2023-04-16T19:43:05;6.45;;;3.13;;
79785;SDS011;69265;43.614;13.518;2023-04-16T19:45:31;8.07;;;3.42;;
79785;SDS011;69265;43.614;13.518;2023-04-16T19:47:57;9.95;;;3.97;;
79785;SDS011;69265;43.614;13.518;2023-04-16T19:50:22;6.78;;;2.47;;
79785;SDS011;69265;43.614;13.518;2023-04-16T19:52:50;9.90;;;2.97;;
79785;SDS011;69265;43.614;13.518;2023-04-16T19:55:15;10.10;;;2.80;;
79785;SDS011;69265;43.614;13.518;2023-04-16T19:57:41;10.45;;;3.00;;
79785;SDS011;69265;43.614;13.518;2023-04-16T20:00:07;9.90;;;3.00;;
79785;SDS011;69265;43.614;13.518;2023-04-16T20:02:35;4.53;;;2.70;;
79785;SDS011;69265;43.614;13.518;2023-04-16T20:05:01;11.60;;;3.35;;
79785;SDS011;69265;43.614;13.518;2023-04-16T20:07:27;13.85;;;4.10;;
79785;SDS011;69265;43.614;13.518;2023-04-16T20:09:53;8.82;;;2.42;;
79785;SDS011;69265;43.614;13.518;2023-04-16T20:12:18;8.95;;;3.08;;
79785;SDS011;69265;43.614;13.518;2023-04-16T20:14:44;8.57;;;3.05;;
79785;SDS011;69265;43.614;13.518;2023-04-16T20:17:11;14.27;;;5.43;;
79785;SDS011;69265;43.614;13.518;2023-04-16T20:19:42;7.82;;;3.33;;
79785;SDS011;69265;43.614;13.518;2023-04-16T20:22:11;10.10;;;3.72;;
79785;SDS011;69265;43.614;13.518;2023-04-16T20:24:38;9.40;;;4.20;;
79785;SDS011;69265;43.614;13.518;2023-04-16T20:27:04;12.90;;;3.15;;
79785;SDS011;69265;43.614;13.518;2023-04-16T20:29:30;5.60;;;3.20;;
79785;SDS011;69265;43.614;13.518;2023-04-16T20:31:56;6.35;;;2.63;;
79785;SDS011;69265;43.614;13.518;2023-04-16T20:34:21;7.60;;;3.65;;
79785;SDS011;69265;43.614;13.518;2023-04-16T20:36:47;8.27;;;3.50;;
79785;SDS011;69265;43.614;13.518;2023-04-16T20:39:13;13.20;;;4.13;;
79785;SDS011;69265;43.614;13.518;2023-04-16T20:41:44;9.45;;;2.70;;
79785;SDS011;69265;43.614;13.518;2023-04-16T20:44:20;12.52;;;3.80;;
79785;SDS011;69265;43.614;13.518;2023-04-16T20:46:50;13.55;;;3.15;;
79785;SDS011;69265;43.614;13.518;2023-04-16T20:49:18;15.25;;;4.15;;
79785;SDS011;69265;43.614;13.518;2023-04-16T20:51:44;9.35;;;3.22;;
79785;SDS011;69265;43.614;13.518;2023-04-16T20:54:10;10.88;;;3.35;;
79785;SDS011;69265;43.614;13.518;2023-04-16T20:56:36;9.93;;;3.50;;
79785;SDS011;69265;43.614;13.518;2023-04-16T20:59:01;10.30;;;3.67;;
79785;SDS011;69265;43.614;13.518;2023-04-16T21:01:27;9.60;;;3.70;;
79785;SDS011;69265;43.614;13.518;2023-04-16T21:03:53;9.57;;;3.67;;
79785;SDS011;69265;43.614;13.518;2023-04-16T21:06:19;9.30;;;3.33;;
79785;SDS011;69265;43.614;13.518;2023-04-16T21:08:46;12.70;;;4.05;;
79785;SDS011;69265;43.614;13.518;2023-04-16T21:11:12;10.32;;;3.75;;
79785;SDS011;69265;43.614;13.518;2023-04-16T21:13:38;13.50;;;3.97;;
79785;SDS011;69265;43.614;13.518;2023-04-16T21:16:04;9.57;;;4.40;;
79785;SDS011;69265;43.614;13.518;2023-04-16T21:18:30;12.75;;;4.15;;
79785;SDS011;69265;43.614;13.518;2023-04-16T21:20:55;10.35;;;3.50;;
79785;SDS011;69265;43.614;13.518;2023-04-16T21:23:21;11.13;;;3.00;;
79785;SDS011;69265;43.614;13.518;2023-04-16T21:25:47;7.55;;;3.30;;
79785;SDS011;69265;43.614;13.518;2023-04-16T21:28:13;11.70;;;4.13;;
79785;SDS011;69265;43.614;13.518;2023-04-16T21:30:38;9.15;;;2.90;;
79785;SDS011;69265;43.614;13.518;2023-04-16T21:33:04;9.55;;;4.03;;
79785;SDS011;69265;43.614;13.518;2023-04-16T21:35:30;11.85;;;4.47;;
79785;SDS011;69265;43.614;13.518;2023-04-16T21:37:57;9.43;;;4.18;;
79785;SDS011;69265;43.614;13.518;2023-04-16T21:40:22;12.07;;;3.85;;
79785;SDS011;69265;43.614;13.518;2023-04-16T21:42:48;6.90;;;3.65;;
79785;SDS011;69265;43.614;13.518;2023-04-16T21:45:14;10.65;;;4.22;;
79785;SDS011;69265;43.614;13.518;2023-04-16T21:47:39;7.13;;;3.85;;
79785;SDS011;69265;43.614;13.518;2023-04-16T21:50:05;9.90;;;3.70;;
79785;SDS011;69265;43.614;13.518;2023-04-16T21:52:32;10.57;;;4.65;;
79785;SDS011;69265;43.614;13.518;2023-04-16T21:54:58;13.98;;;4.55;;
79785;SDS011;69265;43.614;13.518;2023-04-16T21:57:24;14.93;;;4.13;;
79785;SDS011;69265;43.614;13.518;2023-04-16T21:59:50;11.02;;;4.07;;
79785;SDS011;69265;43.614;13.518;2023-04-16T22:02:16;14.55;;;3.85;;
79785;SDS011;69265;43.614;13.518;2023-04-16T22:04:42;12.48;;;4.05;;
79785;SDS011;69265;43.614;13.518;2023-04-16T22:07:07;13.93;;;4.57;;
79785;SDS011;69265;43.614;13.518;2023-04-16T22:09:34;10.68;;;4.80;;
79785;SDS011;69265;43.614;13.518;2023-04-16T22:12:01;10.75;;;4.30;;
79785;SDS011;69265;43.614;13.518;2023-04-16T22:14:27;11.75;;;4.15;;
79785;SDS011;69265;43.614;13.518;2023-04-16T22:16:54;10.40;;;3.53;;
79785;SDS011;69265;43.614;13.518;2023-04-16T22:19:20;11.38;;;4.65;;
79785;SDS011;69265;43.614;13.518;2023-04-16T22:21:46;10.68;;;4.20;;
79785;SDS011;69265;43.614;13.518;2023-04-16T22:24:12;15.48;;;4.55;;
79785;SDS011;69265;43.614;13.518;2023-04-16T22:26:38;14.57;;;5.05;;
79785;SDS011;69265;43.614;13.518;2023-04-16T22:29:04;10.82;;;3.97;;
79785;SDS011;69265;43.614;13.518;2023-04-16T22:31:30;12.35;;;4.47;;
79785;SDS011;69265;43.614;13.518;2023-04-16T22:33:59;9.05;;;3.53;;
79785;SDS011;69265;43.614;13.518;2023-04-16T22:36:25;7.28;;;3.90;;
79785;SDS011;69265;43.614;13.518;2023-04-16T22:38:51;11.20;;;3.30;;
79785;SDS011;69265;43.614;13.518;2023-04-16T22:41:17;6.97;;;2.85;;
79785;SDS011;69265;43.614;13.518;2023-04-16T22:43:43;6.78;;;2.92;;
79785;SDS011;69265;43.614;13.518;2023-04-16T22:46:08;7.28;;;3.03;;
79785;SDS011;69265;43.614;13.518;2023-04-16T22:48:35;10.50;;;3.10;;
79785;SDS011;69265;43.614;13.518;2023-04-16T22:51:02;12.75;;;3.55;;
79785;SDS011;69265;43.614;13.518;2023-04-16T22:53:29;10.18;;;4.50;;
79785;SDS011;69265;43.614;13.518;2023-04-16T22:55:55;10.93;;;3.53;;
79785;SDS011;69265;43.614;13.518;2023-04-16T22:58:20;8.20;;;3.75;;
79785;SDS011;69265;43.614;13.518;2023-04-16T23:00:46;9.80;;;3.03;;
79785;SDS011;69265;43.614;13.518;2023-04-16T23:03:13;10.13;;;4.05;;
79785;SDS011;69265;43.614;13.518;2023-04-16T23:05:39;6.95;;;3.53;;
79785;SDS011;69265;43.614;13.518;2023-04-16T23:08:05;11.45;;;4.47;;
79785;SDS011;69265;43.614;13.518;2023-04-16T23:10:31;9.48;;;3.75;;
79785;SDS011;69265;43.614;13.518;2023-04-16T23:12:57;7.90;;;3.80;;
79785;SDS011;69265;43.614;13.518;2023-04-16T23:15:23;14.52;;;4.47;;
79785;SDS011;69265;43.614;13.518;2023-04-16T23:17:49;8.30;;;3.97;;
79785;SDS011;69265;43.614;13.518;2023-04-16T23:20:14;8.07;;;3.88;;
79785;SDS011;69265;43.614;13.518;2023-04-16T23:22:40;5.00;;;2.70;;
79785;SDS011;69265;43.614;13.518;2023-04-16T23:25:06;8.27;;;3.55;;
79785;SDS011;69265;43.614;13.518;2023-04-16T23:27:33;10.35;;;4.15;;
79785;SDS011;69265;43.614;13.518;2023-04-16T23:30:00;11.73;;;4.82;;
79785;SDS011;69265;43.614;13.518;2023-04-16T23:32:25;8.98;;;4.80;;
79785;SDS011;69265;43.614;13.518;2023-04-16T23:34:52;11.25;;;4.53;;
79785;SDS011;69265;43.614;13.518;2023-04-16T23:37:17;10.20;;;3.72;;
79785;SDS011;69265;43.614;13.518;2023-04-16T23:39:43;11.23;;;4.50;;
79785;SDS011;69265;43.614;13.518;2023-04-16T23:42:09;8.63;;;3.92;;
79785;SDS011;69265;43.614;13.518;2023-04-16T23:44:35;9.95;;;3.72;;
79785;SDS011;69265;43.614;13.518;2023-04-16T23:47:01;15.80;;;5.30;;
79785;SDS011;69265;43.614;13.518;2023-04-16T23:49:27;9.10;;;4.28;;
79785;SDS011;69265;43.614;13.518;2023-04-16T23:51:53;12.48;;;5.57;;
79785;SDS011;69265;43.614;13.518;2023-04-16T23:54:19;6.70;;;3.25;;
79785;SDS011;69265;43.614;13.518;2023-04-16T23:56:45;11.50;;;4.78;;
79785;SDS011;69265;43.614;13.518;2023-04-16T23:59:11;8.30;;;4.80;;
